sensor_id;sensor_type;location;lat;lon;timestamp;P1;durP1;ratioP1;P2;durP2;ratioP2
17330;SDS011;8783;52.448;4.638;2024-01-25T00:01:52;15.80;;;3.80;;
17330;SDS011;8783;52.448;4.638;2024-01-25T00:04:19;15.70;;;4.05;;
17330;SDS011;8783;52.448;4.638;2024-01-25T00:06:44;14.55;;;3.97;;
17330;SDS011;8783;52.448;4.638;2024-01-25T00:09:10;16.58;;;4.28;;
17330;SDS011;8783;52.448;4.638;2024-01-25T00:11:35;15.57;;;3.88;;
17330;SDS011;8783;52.448;4.638;2024-01-25T00:14:01;18.42;;;4.35;;
17330;SDS011;8783;52.448;4.638;2024-01-25T00:16:27;17.63;;;4.43;;
17330;SDS011;8783;52.448;4.638;2024-01-25T00:18:53;13.73;;;3.80;;
17330;SDS011;8783;52.448;4.638;2024-01-25T00:21:18;17.67;;;4.28;;
17330;SDS011;8783;52.448;4.638;2024-01-25T00:23:44;18.75;;;4.22;;
17330;SDS011;8783;52.448;4.638;2024-01-25T00:26:09;18.02;;;4.47;;
17330;SDS011;8783;52.448;4.638;2024-01-25T00:28:35;19.40;;;4.18;;
17330;SDS011;8783;52.448;4.638;2024-01-25T00:31:01;16.67;;;4.07;;
17330;SDS011;8783;52.448;4.638;2024-01-25T00:33:26;15.00;;;4.05;;
17330;SDS011;8783;52.448;4.638;2024-01-25T00:35:52;16.02;;;3.90;;
17330;SDS011;8783;52.448;4.638;2024-01-25T00:38:18;16.85;;;4.20;;
17330;SDS011;8783;52.448;4.638;2024-01-25T00:40:44;15.25;;;3.83;;
17330;SDS011;8783;52.448;4.638;2024-01-25T00:43:10;20.00;;;4.70;;
17330;SDS011;8783;52.448;4.638;2024-01-25T00:45:36;16.65;;;4.10;;
17330;SDS011;8783;52.448;4.638;2024-01-25T00:48:02;16.65;;;4.07;;
17330;SDS011;8783;52.448;4.638;2024-01-25T00:50:28;21.75;;;5.10;;
17330;SDS011;8783;52.448;4.638;2024-01-25T00:52:53;13.75;;;3.70;;
17330;SDS011;8783;52.448;4.638;2024-01-25T00:55:20;16.15;;;3.80;;
17330;SDS011;8783;52.448;4.638;2024-01-25T00:57:45;13.65;;;3.63;;
17330;SDS011;8783;52.448;4.638;2024-01-25T01:00:12;16.13;;;4.47;;
17330;SDS011;8783;52.448;4.638;2024-01-25T01:02:44;20.98;;;4.78;;
17330;SDS011;8783;52.448;4.638;2024-01-25T01:05:11;14.48;;;3.78;;
17330;SDS011;8783;52.448;4.638;2024-01-25T01:07:38;14.68;;;3.75;;
17330;SDS011;8783;52.448;4.638;2024-01-25T01:10:06;14.93;;;3.88;;
17330;SDS011;8783;52.448;4.638;2024-01-25T01:12:32;15.20;;;3.80;;
17330;SDS011;8783;52.448;4.638;2024-01-25T01:14:58;18.75;;;4.53;;
17330;SDS011;8783;52.448;4.638;2024-01-25T01:17:24;13.57;;;3.63;;
17330;SDS011;8783;52.448;4.638;2024-01-25T01:19:49;15.27;;;4.10;;
17330;SDS011;8783;52.448;4.638;2024-01-25T01:22:15;15.07;;;4.10;;
17330;SDS011;8783;52.448;4.638;2024-01-25T01:24:40;14.07;;;4.13;;
17330;SDS011;8783;52.448;4.638;2024-01-25T01:27:06;20.17;;;3.88;;
17330;SDS011;8783;52.448;4.638;2024-01-25T01:29:31;13.52;;;3.60;;
17330;SDS011;8783;52.448;4.638;2024-01-25T01:31:57;16.67;;;4.72;;
17330;SDS011;8783;52.448;4.638;2024-01-25T01:34:23;14.63;;;4.10;;
17330;SDS011;8783;52.448;4.638;2024-01-25T01:36:48;17.98;;;4.18;;
17330;SDS011;8783;52.448;4.638;2024-01-25T01:39:14;18.65;;;4.50;;
17330;SDS011;8783;52.448;4.638;2024-01-25T01:41:40;18.70;;;4.38;;
17330;SDS011;8783;52.448;4.638;2024-01-25T01:44:05;17.27;;;3.75;;
17330;SDS011;8783;52.448;4.638;2024-01-25T01:46:34;15.25;;;3.97;;
17330;SDS011;8783;52.448;4.638;2024-01-25T01:49:03;17.23;;;4.75;;
17330;SDS011;8783;52.448;4.638;2024-01-25T01:51:29;19.08;;;3.65;;
17330;SDS011;8783;52.448;4.638;2024-01-25T01:53:56;14.30;;;4.07;;
17330;SDS011;8783;52.448;4.638;2024-01-25T01:56:23;15.77;;;3.95;;
17330;SDS011;8783;52.448;4.638;2024-01-25T01:58:50;18.27;;;3.97;;
17330;SDS011;8783;52.448;4.638;2024-01-25T02:01:17;17.17;;;4.47;;
17330;SDS011;8783;52.448;4.638;2024-01-25T02:03:43;14.52;;;3.90;;
17330;SDS011;8783;52.448;4.638;2024-01-25T02:06:10;12.27;;;3.25;;
17330;SDS011;8783;52.448;4.638;2024-01-25T02:08:35;18.55;;;3.72;;
17330;SDS011;8783;52.448;4.638;2024-01-25T02:11:01;15.38;;;3.95;;
17330;SDS011;8783;52.448;4.638;2024-01-25T02:13:27;13.63;;;3.85;;
17330;SDS011;8783;52.448;4.638;2024-01-25T02:15:53;17.90;;;3.92;;
17330;SDS011;8783;52.448;4.638;2024-01-25T02:18:18;16.92;;;3.97;;
17330;SDS011;8783;52.448;4.638;2024-01-25T02:20:44;13.65;;;3.78;;
17330;SDS011;8783;52.448;4.638;2024-01-25T02:23:09;18.08;;;3.85;;
17330;SDS011;8783;52.448;4.638;2024-01-25T02:25:35;13.88;;;3.50;;
17330;SDS011;8783;52.448;4.638;2024-01-25T02:28:01;13.43;;;3.35;;
17330;SDS011;8783;52.448;4.638;2024-01-25T02:30:26;13.93;;;3.70;;
17330;SDS011;8783;52.448;4.638;2024-01-25T02:32:52;13.07;;;3.50;;
17330;SDS011;8783;52.448;4.638;2024-01-25T02:35:17;16.50;;;4.25;;
17330;SDS011;8783;52.448;4.638;2024-01-25T02:37:43;14.95;;;3.70;;
17330;SDS011;8783;52.448;4.638;2024-01-25T02:40:09;15.18;;;3.78;;
17330;SDS011;8783;52.448;4.638;2024-01-25T02:42:35;15.13;;;4.00;;
17330;SDS011;8783;52.448;4.638;2024-01-25T02:45:01;14.32;;;3.30;;
17330;SDS011;8783;52.448;4.638;2024-01-25T02:47:26;16.23;;;3.90;;
17330;SDS011;8783;52.448;4.638;2024-01-25T02:49:52;15.63;;;3.25;;
17330;SDS011;8783;52.448;4.638;2024-01-25T02:52:17;16.30;;;3.80;;
17330;SDS011;8783;52.448;4.638;2024-01-25T02:54:43;11.90;;;3.25;;
17330;SDS011;8783;52.448;4.638;2024-01-25T02:57:09;15.70;;;3.72;;
17330;SDS011;8783;52.448;4.638;2024-01-25T02:59:35;13.95;;;3.97;;
17330;SDS011;8783;52.448;4.638;2024-01-25T03:02:00;15.38;;;3.45;;
17330;SDS011;8783;52.448;4.638;2024-01-25T03:04:26;14.05;;;3.72;;
17330;SDS011;8783;52.448;4.638;2024-01-25T03:06:51;15.80;;;3.80;;
17330;SDS011;8783;52.448;4.638;2024-01-25T03:09:17;15.50;;;3.65;;
17330;SDS011;8783;52.448;4.638;2024-01-25T03:11:42;15.80;;;3.45;;
17330;SDS011;8783;52.448;4.638;2024-01-25T03:14:08;15.65;;;3.58;;
17330;SDS011;8783;52.448;4.638;2024-01-25T03:16:34;16.42;;;3.20;;
17330;SDS011;8783;52.448;4.638;2024-01-25T03:18:59;14.80;;;3.78;;
17330;SDS011;8783;52.448;4.638;2024-01-25T03:21:25;14.75;;;3.83;;
17330;SDS011;8783;52.448;4.638;2024-01-25T03:23:51;15.85;;;3.75;;
17330;SDS011;8783;52.448;4.638;2024-01-25T03:26:17;16.83;;;4.38;;
17330;SDS011;8783;52.448;4.638;2024-01-25T03:28:43;16.25;;;3.78;;
17330;SDS011;8783;52.448;4.638;2024-01-25T03:31:08;12.63;;;3.85;;
17330;SDS011;8783;52.448;4.638;2024-01-25T03:33:34;12.65;;;3.78;;
17330;SDS011;8783;52.448;4.638;2024-01-25T03:36:03;14.13;;;3.42;;
17330;SDS011;8783;52.448;4.638;2024-01-25T03:38:29;12.10;;;3.40;;
17330;SDS011;8783;52.448;4.638;2024-01-25T03:40:55;12.95;;;3.35;;
17330;SDS011;8783;52.448;4.638;2024-01-25T03:43:23;10.10;;;2.70;;
17330;SDS011;8783;52.448;4.638;2024-01-25T03:45:49;14.70;;;3.75;;
17330;SDS011;8783;52.448;4.638;2024-01-25T03:48:15;14.60;;;3.72;;
17330;SDS011;8783;52.448;4.638;2024-01-25T03:50:40;15.18;;;3.65;;
17330;SDS011;8783;52.448;4.638;2024-01-25T03:53:06;13.23;;;3.67;;
17330;SDS011;8783;52.448;4.638;2024-01-25T03:55:32;14.77;;;3.42;;
17330;SDS011;8783;52.448;4.638;2024-01-25T03:57:58;11.32;;;3.28;;
17330;SDS011;8783;52.448;4.638;2024-01-25T04:00:23;14.80;;;3.75;;
17330;SDS011;8783;52.448;4.638;2024-01-25T04:02:49;10.88;;;2.97;;
17330;SDS011;8783;52.448;4.638;2024-01-25T04:05:15;9.60;;;2.85;;
17330;SDS011;8783;52.448;4.638;2024-01-25T04:07:41;14.73;;;3.35;;
17330;SDS011;8783;52.448;4.638;2024-01-25T04:10:07;15.90;;;3.30;;
17330;SDS011;8783;52.448;4.638;2024-01-25T04:12:32;15.50;;;4.00;;
17330;SDS011;8783;52.448;4.638;2024-01-25T04:14:58;14.00;;;3.42;;
17330;SDS011;8783;52.448;4.638;2024-01-25T04:17:24;13.43;;;3.67;;
17330;SDS011;8783;52.448;4.638;2024-01-25T04:19:49;11.90;;;3.40;;
17330;SDS011;8783;52.448;4.638;2024-01-25T04:22:15;13.23;;;3.80;;
17330;SDS011;8783;52.448;4.638;2024-01-25T04:24:40;15.38;;;3.78;;
17330;SDS011;8783;52.448;4.638;2024-01-25T04:27:06;14.10;;;4.20;;
17330;SDS011;8783;52.448;4.638;2024-01-25T04:29:32;14.13;;;3.45;;
17330;SDS011;8783;52.448;4.638;2024-01-25T04:31:57;12.27;;;3.63;;
17330;SDS011;8783;52.448;4.638;2024-01-25T04:34:23;12.75;;;3.38;;
17330;SDS011;8783;52.448;4.638;2024-01-25T04:36:49;11.00;;;2.75;;
17330;SDS011;8783;52.448;4.638;2024-01-25T04:39:14;13.50;;;3.60;;
17330;SDS011;8783;52.448;4.638;2024-01-25T04:41:40;12.02;;;3.38;;
17330;SDS011;8783;52.448;4.638;2024-01-25T04:44:05;12.10;;;3.50;;
17330;SDS011;8783;52.448;4.638;2024-01-25T04:46:31;14.75;;;3.80;;
17330;SDS011;8783;52.448;4.638;2024-01-25T04:49:02;11.50;;;3.58;;
17330;SDS011;8783;52.448;4.638;2024-01-25T04:51:28;10.95;;;2.88;;
17330;SDS011;8783;52.448;4.638;2024-01-25T04:53:53;13.55;;;3.08;;
17330;SDS011;8783;52.448;4.638;2024-01-25T04:56:19;12.70;;;2.75;;
17330;SDS011;8783;52.448;4.638;2024-01-25T04:58:44;12.93;;;3.20;;
17330;SDS011;8783;52.448;4.638;2024-01-25T05:01:10;13.35;;;3.58;;
17330;SDS011;8783;52.448;4.638;2024-01-25T05:03:36;13.98;;;3.47;;
17330;SDS011;8783;52.448;4.638;2024-01-25T05:06:02;12.85;;;3.25;;
17330;SDS011;8783;52.448;4.638;2024-01-25T05:08:28;14.10;;;3.50;;
17330;SDS011;8783;52.448;4.638;2024-01-25T05:10:54;11.90;;;3.05;;
17330;SDS011;8783;52.448;4.638;2024-01-25T05:13:19;13.52;;;3.47;;
17330;SDS011;8783;52.448;4.638;2024-01-25T05:15:45;12.63;;;3.05;;
17330;SDS011;8783;52.448;4.638;2024-01-25T05:18:10;14.35;;;3.08;;
17330;SDS011;8783;52.448;4.638;2024-01-25T05:20:36;11.25;;;3.53;;
17330;SDS011;8783;52.448;4.638;2024-01-25T05:23:03;11.32;;;2.70;;
17330;SDS011;8783;52.448;4.638;2024-01-25T05:25:29;11.60;;;2.85;;
17330;SDS011;8783;52.448;4.638;2024-01-25T05:27:55;10.57;;;2.63;;
17330;SDS011;8783;52.448;4.638;2024-01-25T05:30:22;10.57;;;2.83;;
17330;SDS011;8783;52.448;4.638;2024-01-25T05:32:49;12.15;;;3.60;;
17330;SDS011;8783;52.448;4.638;2024-01-25T05:35:15;11.35;;;2.58;;
17330;SDS011;8783;52.448;4.638;2024-01-25T05:37:41;9.48;;;3.00;;
17330;SDS011;8783;52.448;4.638;2024-01-25T05:40:07;10.23;;;2.92;;
17330;SDS011;8783;52.448;4.638;2024-01-25T05:42:36;12.18;;;3.70;;
17330;SDS011;8783;52.448;4.638;2024-01-25T05:45:03;8.52;;;2.60;;
17330;SDS011;8783;52.448;4.638;2024-01-25T05:47:29;9.50;;;2.63;;
17330;SDS011;8783;52.448;4.638;2024-01-25T05:49:55;9.75;;;2.80;;
17330;SDS011;8783;52.448;4.638;2024-01-25T05:52:21;11.75;;;3.00;;
17330;SDS011;8783;52.448;4.638;2024-01-25T05:54:48;10.15;;;3.03;;
17330;SDS011;8783;52.448;4.638;2024-01-25T05:57:14;10.20;;;2.90;;
17330;SDS011;8783;52.448;4.638;2024-01-25T05:59:40;8.90;;;2.72;;
17330;SDS011;8783;52.448;4.638;2024-01-25T06:02:06;13.05;;;3.30;;
17330;SDS011;8783;52.448;4.638;2024-01-25T06:04:32;8.50;;;2.63;;
17330;SDS011;8783;52.448;4.638;2024-01-25T06:06:58;11.15;;;3.10;;
17330;SDS011;8783;52.448;4.638;2024-01-25T06:09:24;9.48;;;3.00;;
17330;SDS011;8783;52.448;4.638;2024-01-25T06:11:50;9.32;;;3.00;;
17330;SDS011;8783;52.448;4.638;2024-01-25T06:14:16;13.15;;;3.70;;
17330;SDS011;8783;52.448;4.638;2024-01-25T06:16:42;10.40;;;2.63;;
17330;SDS011;8783;52.448;4.638;2024-01-25T06:19:08;9.27;;;2.90;;
17330;SDS011;8783;52.448;4.638;2024-01-25T06:21:33;10.05;;;3.20;;
17330;SDS011;8783;52.448;4.638;2024-01-25T06:24:01;12.38;;;3.10;;
17330;SDS011;8783;52.448;4.638;2024-01-25T06:26:27;11.68;;;2.97;;
17330;SDS011;8783;52.448;4.638;2024-01-25T06:28:52;9.00;;;3.20;;
17330;SDS011;8783;52.448;4.638;2024-01-25T06:31:18;10.25;;;3.40;;
17330;SDS011;8783;52.448;4.638;2024-01-25T06:33:43;13.38;;;3.38;;
17330;SDS011;8783;52.448;4.638;2024-01-25T06:36:12;12.18;;;3.00;;
17330;SDS011;8783;52.448;4.638;2024-01-25T06:38:40;8.30;;;2.70;;
17330;SDS011;8783;52.448;4.638;2024-01-25T06:41:06;9.02;;;2.67;;
17330;SDS011;8783;52.448;4.638;2024-01-25T06:43:32;14.13;;;3.15;;
17330;SDS011;8783;52.448;4.638;2024-01-25T06:45:57;10.93;;;2.80;;
17330;SDS011;8783;52.448;4.638;2024-01-25T06:48:23;9.98;;;3.00;;
17330;SDS011;8783;52.448;4.638;2024-01-25T06:50:48;10.70;;;2.83;;
17330;SDS011;8783;52.448;4.638;2024-01-25T06:53:15;9.90;;;2.63;;
17330;SDS011;8783;52.448;4.638;2024-01-25T06:55:41;13.55;;;3.42;;
17330;SDS011;8783;52.448;4.638;2024-01-25T06:58:07;10.65;;;2.70;;
17330;SDS011;8783;52.448;4.638;2024-01-25T07:00:33;15.70;;;3.42;;
17330;SDS011;8783;52.448;4.638;2024-01-25T07:02:59;13.43;;;3.03;;
17330;SDS011;8783;52.448;4.638;2024-01-25T07:05:25;13.98;;;3.15;;
17330;SDS011;8783;52.448;4.638;2024-01-25T07:07:51;13.10;;;2.90;;
17330;SDS011;8783;52.448;4.638;2024-01-25T07:10:17;10.20;;;3.00;;
17330;SDS011;8783;52.448;4.638;2024-01-25T07:12:43;12.55;;;3.15;;
17330;SDS011;8783;52.448;4.638;2024-01-25T07:15:08;8.02;;;2.67;;
17330;SDS011;8783;52.448;4.638;2024-01-25T07:17:34;12.07;;;3.47;;
17330;SDS011;8783;52.448;4.638;2024-01-25T07:20:00;10.68;;;2.88;;
17330;SDS011;8783;52.448;4.638;2024-01-25T07:22:25;13.15;;;3.40;;
17330;SDS011;8783;52.448;4.638;2024-01-25T07:24:51;10.27;;;2.70;;
17330;SDS011;8783;52.448;4.638;2024-01-25T07:27:16;13.75;;;3.38;;
17330;SDS011;8783;52.448;4.638;2024-01-25T07:29:46;17.30;;;4.00;;
17330;SDS011;8783;52.448;4.638;2024-01-25T07:32:12;11.05;;;3.10;;
17330;SDS011;8783;52.448;4.638;2024-01-25T07:34:45;14.65;;;3.30;;
17330;SDS011;8783;52.448;4.638;2024-01-25T07:37:11;11.77;;;2.97;;
17330;SDS011;8783;52.448;4.638;2024-01-25T07:39:37;12.82;;;3.10;;
17330;SDS011;8783;52.448;4.638;2024-01-25T07:42:02;16.63;;;3.72;;
17330;SDS011;8783;52.448;4.638;2024-01-25T07:44:28;14.57;;;3.38;;
17330;SDS011;8783;52.448;4.638;2024-01-25T07:46:54;18.45;;;4.00;;
17330;SDS011;8783;52.448;4.638;2024-01-25T07:49:19;21.00;;;4.10;;
17330;SDS011;8783;52.448;4.638;2024-01-25T07:51:45;17.60;;;3.72;;
17330;SDS011;8783;52.448;4.638;2024-01-25T07:54:11;22.42;;;4.10;;
17330;SDS011;8783;52.448;4.638;2024-01-25T07:56:37;16.83;;;3.60;;
17330;SDS011;8783;52.448;4.638;2024-01-25T07:59:03;14.35;;;3.55;;
17330;SDS011;8783;52.448;4.638;2024-01-25T08:01:28;18.13;;;3.83;;
17330;SDS011;8783;52.448;4.638;2024-01-25T08:03:54;19.73;;;3.85;;
17330;SDS011;8783;52.448;4.638;2024-01-25T08:06:20;14.65;;;3.75;;
17330;SDS011;8783;52.448;4.638;2024-01-25T08:08:47;12.90;;;2.90;;
17330;SDS011;8783;52.448;4.638;2024-01-25T08:11:13;15.38;;;3.78;;
17330;SDS011;8783;52.448;4.638;2024-01-25T08:13:38;16.45;;;4.15;;
17330;SDS011;8783;52.448;4.638;2024-01-25T08:16:10;17.35;;;4.07;;
17330;SDS011;8783;52.448;4.638;2024-01-25T08:18:41;19.33;;;4.40;;
17330;SDS011;8783;52.448;4.638;2024-01-25T08:21:10;19.48;;;4.50;;
17330;SDS011;8783;52.448;4.638;2024-01-25T08:23:36;20.05;;;4.32;;
17330;SDS011;8783;52.448;4.638;2024-01-25T08:26:02;21.05;;;5.55;;
17330;SDS011;8783;52.448;4.638;2024-01-25T08:28:27;20.27;;;4.95;;
17330;SDS011;8783;52.448;4.638;2024-01-25T08:30:53;19.30;;;4.28;;
17330;SDS011;8783;52.448;4.638;2024-01-25T08:33:19;17.60;;;4.97;;
17330;SDS011;8783;52.448;4.638;2024-01-25T08:35:44;14.38;;;4.18;;
17330;SDS011;8783;52.448;4.638;2024-01-25T08:38:10;16.27;;;3.60;;
17330;SDS011;8783;52.448;4.638;2024-01-25T08:40:36;19.33;;;4.30;;
17330;SDS011;8783;52.448;4.638;2024-01-25T08:43:01;17.80;;;4.15;;
17330;SDS011;8783;52.448;4.638;2024-01-25T08:45:27;17.08;;;3.80;;
17330;SDS011;8783;52.448;4.638;2024-01-25T08:47:52;13.20;;;3.97;;
17330;SDS011;8783;52.448;4.638;2024-01-25T08:50:18;16.70;;;4.30;;
17330;SDS011;8783;52.448;4.638;2024-01-25T08:52:44;13.25;;;4.03;;
17330;SDS011;8783;52.448;4.638;2024-01-25T08:55:09;14.63;;;3.85;;
17330;SDS011;8783;52.448;4.638;2024-01-25T08:57:35;17.48;;;4.13;;
17330;SDS011;8783;52.448;4.638;2024-01-25T09:00:01;16.23;;;3.97;;
17330;SDS011;8783;52.448;4.638;2024-01-25T09:02:33;12.15;;;3.83;;
17330;SDS011;8783;52.448;4.638;2024-01-25T09:04:59;16.70;;;4.07;;
17330;SDS011;8783;52.448;4.638;2024-01-25T09:07:24;13.20;;;3.83;;
17330;SDS011;8783;52.448;4.638;2024-01-25T09:09:50;15.52;;;3.78;;
17330;SDS011;8783;52.448;4.638;2024-01-25T09:12:15;16.25;;;3.97;;
17330;SDS011;8783;52.448;4.638;2024-01-25T09:14:41;14.57;;;3.55;;
17330;SDS011;8783;52.448;4.638;2024-01-25T09:17:07;16.90;;;3.75;;
17330;SDS011;8783;52.448;4.638;2024-01-25T09:19:33;12.00;;;3.30;;
17330;SDS011;8783;52.448;4.638;2024-01-25T09:21:59;16.23;;;3.50;;
17330;SDS011;8783;52.448;4.638;2024-01-25T09:24:29;10.80;;;3.53;;
17330;SDS011;8783;52.448;4.638;2024-01-25T09:26:55;15.48;;;3.40;;
17330;SDS011;8783;52.448;4.638;2024-01-25T09:29:23;11.90;;;3.13;;
17330;SDS011;8783;52.448;4.638;2024-01-25T09:31:49;17.02;;;3.92;;
17330;SDS011;8783;52.448;4.638;2024-01-25T09:34:15;11.30;;;3.15;;
17330;SDS011;8783;52.448;4.638;2024-01-25T09:36:40;12.18;;;3.00;;
17330;SDS011;8783;52.448;4.638;2024-01-25T09:39:06;14.23;;;3.80;;
17330;SDS011;8783;52.448;4.638;2024-01-25T09:41:33;12.65;;;3.35;;
17330;SDS011;8783;52.448;4.638;2024-01-25T09:43:58;11.30;;;2.90;;
17330;SDS011;8783;52.448;4.638;2024-01-25T09:46:24;15.75;;;3.65;;
17330;SDS011;8783;52.448;4.638;2024-01-25T09:48:50;12.23;;;3.35;;
17330;SDS011;8783;52.448;4.638;2024-01-25T09:51:16;13.00;;;3.13;;
17330;SDS011;8783;52.448;4.638;2024-01-25T09:53:42;11.57;;;3.10;;
17330;SDS011;8783;52.448;4.638;2024-01-25T09:56:12;19.60;;;3.83;;
17330;SDS011;8783;52.448;4.638;2024-01-25T09:58:41;14.25;;;3.17;;
17330;SDS011;8783;52.448;4.638;2024-01-25T10:01:09;10.85;;;3.47;;
17330;SDS011;8783;52.448;4.638;2024-01-25T10:03:37;8.00;;;2.95;;
17330;SDS011;8783;52.448;4.638;2024-01-25T10:06:13;11.10;;;3.20;;
17330;SDS011;8783;52.448;4.638;2024-01-25T10:08:40;12.35;;;3.53;;
17330;SDS011;8783;52.448;4.638;2024-01-25T10:11:06;10.15;;;2.72;;
17330;SDS011;8783;52.448;4.638;2024-01-25T10:13:42;14.00;;;3.75;;
17330;SDS011;8783;52.448;4.638;2024-01-25T10:16:19;13.98;;;3.42;;
17330;SDS011;8783;52.448;4.638;2024-01-25T10:18:48;11.88;;;3.10;;
17330;SDS011;8783;52.448;4.638;2024-01-25T10:21:18;8.05;;;2.97;;
17330;SDS011;8783;52.448;4.638;2024-01-25T10:23:44;12.57;;;3.88;;
17330;SDS011;8783;52.448;4.638;2024-01-25T10:26:11;14.00;;;3.45;;
17330;SDS011;8783;52.448;4.638;2024-01-25T10:28:36;10.70;;;2.97;;
17330;SDS011;8783;52.448;4.638;2024-01-25T10:31:02;13.85;;;3.42;;
17330;SDS011;8783;52.448;4.638;2024-01-25T10:33:32;10.65;;;2.63;;
17330;SDS011;8783;52.448;4.638;2024-01-25T10:35:59;9.98;;;2.92;;
17330;SDS011;8783;52.448;4.638;2024-01-25T10:38:32;14.27;;;3.50;;
17330;SDS011;8783;52.448;4.638;2024-01-25T10:41:03;12.73;;;3.05;;
17330;SDS011;8783;52.448;4.638;2024-01-25T10:43:30;15.00;;;3.33;;
17330;SDS011;8783;52.448;4.638;2024-01-25T10:45:57;18.33;;;3.90;;
17330;SDS011;8783;52.448;4.638;2024-01-25T10:48:27;13.00;;;3.40;;
17330;SDS011;8783;52.448;4.638;2024-01-25T10:50:54;10.98;;;3.13;;
17330;SDS011;8783;52.448;4.638;2024-01-25T10:53:21;10.70;;;2.90;;
17330;SDS011;8783;52.448;4.638;2024-01-25T10:55:48;11.13;;;3.55;;
17330;SDS011;8783;52.448;4.638;2024-01-25T10:58:15;12.27;;;3.80;;
17330;SDS011;8783;52.448;4.638;2024-01-25T11:00:41;14.13;;;3.65;;
17330;SDS011;8783;52.448;4.638;2024-01-25T11:03:15;9.68;;;2.95;;
17330;SDS011;8783;52.448;4.638;2024-01-25T11:05:42;13.30;;;3.40;;
17330;SDS011;8783;52.448;4.638;2024-01-25T11:08:16;10.95;;;3.55;;
17330;SDS011;8783;52.448;4.638;2024-01-25T11:10:48;12.32;;;3.35;;
17330;SDS011;8783;52.448;4.638;2024-01-25T11:13:16;10.32;;;2.63;;
17330;SDS011;8783;52.448;4.638;2024-01-25T11:15:41;11.60;;;3.20;;
17330;SDS011;8783;52.448;4.638;2024-01-25T11:18:07;9.73;;;2.83;;
17330;SDS011;8783;52.448;4.638;2024-01-25T11:20:34;11.13;;;2.95;;
17330;SDS011;8783;52.448;4.638;2024-01-25T11:23:04;11.98;;;2.90;;
17330;SDS011;8783;52.448;4.638;2024-01-25T11:25:43;13.60;;;3.65;;
17330;SDS011;8783;52.448;4.638;2024-01-25T11:28:11;11.70;;;3.35;;
17330;SDS011;8783;52.448;4.638;2024-01-25T11:30:38;11.18;;;2.88;;
17330;SDS011;8783;52.448;4.638;2024-01-25T11:33:06;13.85;;;3.45;;
17330;SDS011;8783;52.448;4.638;2024-01-25T11:35:32;9.73;;;2.90;;
17330;SDS011;8783;52.448;4.638;2024-01-25T11:37:58;12.63;;;3.35;;
17330;SDS011;8783;52.448;4.638;2024-01-25T11:40:25;9.98;;;3.00;;
17330;SDS011;8783;52.448;4.638;2024-01-25T11:42:51;9.55;;;3.20;;
17330;SDS011;8783;52.448;4.638;2024-01-25T11:45:16;9.68;;;2.88;;
17330;SDS011;8783;52.448;4.638;2024-01-25T11:47:44;12.88;;;2.80;;
17330;SDS011;8783;52.448;4.638;2024-01-25T11:50:12;11.07;;;2.80;;
17330;SDS011;8783;52.448;4.638;2024-01-25T11:52:38;13.60;;;3.03;;
17330;SDS011;8783;52.448;4.638;2024-01-25T11:55:07;11.82;;;3.05;;
17330;SDS011;8783;52.448;4.638;2024-01-25T11:57:34;11.80;;;2.75;;
17330;SDS011;8783;52.448;4.638;2024-01-25T12:00:02;10.70;;;3.58;;
17330;SDS011;8783;52.448;4.638;2024-01-25T12:02:32;12.13;;;3.33;;
17330;SDS011;8783;52.448;4.638;2024-01-25T12:04:58;12.05;;;3.33;;
17330;SDS011;8783;52.448;4.638;2024-01-25T12:07:23;11.27;;;3.65;;
17330;SDS011;8783;52.448;4.638;2024-01-25T12:10:08;16.00;;;3.33;;
17330;SDS011;8783;52.448;4.638;2024-01-25T12:12:40;21.83;;;4.80;;
17330;SDS011;8783;52.448;4.638;2024-01-25T12:15:07;20.80;;;4.28;;
17330;SDS011;8783;52.448;4.638;2024-01-25T12:17:33;20.60;;;4.78;;
17330;SDS011;8783;52.448;4.638;2024-01-25T12:20:04;18.92;;;5.13;;
17330;SDS011;8783;52.448;4.638;2024-01-25T12:22:35;17.95;;;5.03;;
17330;SDS011;8783;52.448;4.638;2024-01-25T12:25:01;24.15;;;4.82;;
17330;SDS011;8783;52.448;4.638;2024-01-25T12:27:28;17.80;;;4.57;;
17330;SDS011;8783;52.448;4.638;2024-01-25T12:29:55;16.75;;;4.10;;
17330;SDS011;8783;52.448;4.638;2024-01-25T12:32:21;19.80;;;5.10;;
17330;SDS011;8783;52.448;4.638;2024-01-25T12:34:53;15.43;;;4.35;;
17330;SDS011;8783;52.448;4.638;2024-01-25T12:37:23;18.13;;;4.05;;
17330;SDS011;8783;52.448;4.638;2024-01-25T12:39:50;19.77;;;4.43;;
17330;SDS011;8783;52.448;4.638;2024-01-25T12:42:17;16.70;;;4.07;;
17330;SDS011;8783;52.448;4.638;2024-01-25T12:44:43;15.90;;;3.67;;
17330;SDS011;8783;52.448;4.638;2024-01-25T12:47:10;15.20;;;4.05;;
17330;SDS011;8783;52.448;4.638;2024-01-25T12:49:39;16.77;;;4.50;;
17330;SDS011;8783;52.448;4.638;2024-01-25T12:52:12;15.55;;;3.80;;
17330;SDS011;8783;52.448;4.638;2024-01-25T12:54:39;14.52;;;4.10;;
17330;SDS011;8783;52.448;4.638;2024-01-25T12:57:05;14.52;;;3.80;;
17330;SDS011;8783;52.448;4.638;2024-01-25T12:59:32;16.98;;;3.83;;
17330;SDS011;8783;52.448;4.638;2024-01-25T13:01:58;15.48;;;4.55;;
17330;SDS011;8783;52.448;4.638;2024-01-25T13:04:24;23.40;;;4.18;;
17330;SDS011;8783;52.448;4.638;2024-01-25T13:06:53;22.33;;;4.57;;
17330;SDS011;8783;52.448;4.638;2024-01-25T13:09:22;17.40;;;4.32;;
17330;SDS011;8783;52.448;4.638;2024-01-25T13:11:48;18.88;;;4.40;;
17330;SDS011;8783;52.448;4.638;2024-01-25T13:14:14;13.63;;;3.78;;
17330;SDS011;8783;52.448;4.638;2024-01-25T13:16:41;14.48;;;3.90;;
17330;SDS011;8783;52.448;4.638;2024-01-25T13:19:06;14.05;;;3.65;;
17330;SDS011;8783;52.448;4.638;2024-01-25T13:21:32;13.52;;;4.15;;
17330;SDS011;8783;52.448;4.638;2024-01-25T13:24:01;14.10;;;4.10;;
17330;SDS011;8783;52.448;4.638;2024-01-25T13:26:26;12.30;;;3.70;;
17330;SDS011;8783;52.448;4.638;2024-01-25T13:28:52;13.95;;;3.72;;
17330;SDS011;8783;52.448;4.638;2024-01-25T13:31:18;11.05;;;3.42;;
17330;SDS011;8783;52.448;4.638;2024-01-25T13:33:44;11.65;;;3.60;;
17330;SDS011;8783;52.448;4.638;2024-01-25T13:36:11;12.98;;;4.07;;
17330;SDS011;8783;52.448;4.638;2024-01-25T13:38:39;10.35;;;3.35;;
17330;SDS011;8783;52.448;4.638;2024-01-25T13:41:05;15.50;;;3.85;;
17330;SDS011;8783;52.448;4.638;2024-01-25T13:43:31;11.27;;;3.10;;
17330;SDS011;8783;52.448;4.638;2024-01-25T13:46:00;10.90;;;3.50;;
17330;SDS011;8783;52.448;4.638;2024-01-25T13:48:25;9.80;;;3.22;;
17330;SDS011;8783;52.448;4.638;2024-01-25T13:50:51;10.23;;;3.28;;
17330;SDS011;8783;52.448;4.638;2024-01-25T13:53:17;11.65;;;3.67;;
17330;SDS011;8783;52.448;4.638;2024-01-25T13:55:43;11.50;;;3.65;;
17330;SDS011;8783;52.448;4.638;2024-01-25T13:58:10;12.30;;;3.17;;
17330;SDS011;8783;52.448;4.638;2024-01-25T14:00:36;10.48;;;3.30;;
17330;SDS011;8783;52.448;4.638;2024-01-25T14:03:01;11.15;;;3.05;;
17330;SDS011;8783;52.448;4.638;2024-01-25T14:05:27;9.95;;;3.42;;
17330;SDS011;8783;52.448;4.638;2024-01-25T14:07:53;12.70;;;3.13;;
17330;SDS011;8783;52.448;4.638;2024-01-25T14:10:19;8.65;;;2.90;;
17330;SDS011;8783;52.448;4.638;2024-01-25T14:12:45;10.93;;;3.38;;
17330;SDS011;8783;52.448;4.638;2024-01-25T14:15:11;12.65;;;3.55;;
17330;SDS011;8783;52.448;4.638;2024-01-25T14:17:37;9.20;;;2.92;;
17330;SDS011;8783;52.448;4.638;2024-01-25T14:20:03;13.80;;;3.30;;
17330;SDS011;8783;52.448;4.638;2024-01-25T14:22:29;10.75;;;3.25;;
17330;SDS011;8783;52.448;4.638;2024-01-25T14:24:55;12.23;;;3.10;;
17330;SDS011;8783;52.448;4.638;2024-01-25T14:27:21;12.95;;;3.75;;
17330;SDS011;8783;52.448;4.638;2024-01-25T14:29:47;10.23;;;3.20;;
17330;SDS011;8783;52.448;4.638;2024-01-25T14:32:12;10.13;;;3.45;;
17330;SDS011;8783;52.448;4.638;2024-01-25T14:34:38;12.07;;;4.32;;
17330;SDS011;8783;52.448;4.638;2024-01-25T14:37:05;10.27;;;3.17;;
17330;SDS011;8783;52.448;4.638;2024-01-25T14:39:30;9.93;;;3.00;;
17330;SDS011;8783;52.448;4.638;2024-01-25T14:41:56;9.70;;;3.22;;
17330;SDS011;8783;52.448;4.638;2024-01-25T14:44:24;11.00;;;3.15;;